This is the latest recevied weather packets stored in our database for station/object IU3OVK-13. If no packets are shown the sender has not sent any weather packets the latest 10 day(s).
| Time | Temp. | Humidity | Pressure | Rain* | Wind** | Luminosity | Snow |
|---|---|---|---|---|---|---|---|
| 1788379396 | 22.78° C | 99% | 1012.1 hPa | - | - | - | - |
| 1788378776 | 23.33° C | 99% | 1011.6 hPa | - | - | - | - |
| 1788378156 | 23.33° C | 99% | 1011.6 hPa | - | - | - | - |
| 1788376916 | 22.78° C | 99% | 1011.7 hPa | - | - | - | - |
| 1788376295 | 23.89° C | 99% | 1011.2 hPa | - | - | - | - |
| 1788375675 | 23.89° C | 99% | 1011.6 hPa | - | - | - | - |
| 1788374435 | 24.44° C | 99% | 1010.7 hPa | - | - | - | - |
| 1788373815 | 24.44° C | 99% | 1010.9 hPa | - | - | - | - |
| 1788373194 | 25° C | 99% | 1010.9 hPa | - | - | - | - |
| 1788372574 | 25° C | 99% | 1011.2 hPa | - | - | - | - |
| 1788371334 | 26.11° C | 99% | 1010.4 hPa | - | - | - | - |
| 1788370714 | 26.67° C | 99% | 1010.8 hPa | - | - | - | - |
| 1788370093 | 27.22° C | 99% | 1010.5 hPa | - | - | - | - |
| 1788369473 | 27.22° C | 99% | 1010.4 hPa | - | - | - | - |
| 1788368853 | 27.78° C | 99% | 1010.4 hPa | - | - | - | - |
| 1788368233 | 28.33° C | 99% | 1009.6 hPa | - | - | - | - |
| 1788367612 | 28.33° C | 99% | 1009.8 hPa | - | - | - | - |
| 1788366992 | 29.44° C | 99% | 1009.4 hPa | - | - | - | - |
| 1788366372 | 28.89° C | 99% | 1009.5 hPa | - | - | - | - |
| 1788365752 | 28.89° C | 99% | 1010 hPa | - | - | - | - |
| 1788365131 | 28.33° C | 99% | 1010.1 hPa | - | - | - | - |
| 1788364511 | 28.89° C | 99% | 1009.3 hPa | - | - | - | - |
| 1788363891 | 28.89° C | 99% | 1009.7 hPa | - | - | - | - |
| 1788363271 | 30° C | 99% | 1009.1 hPa | - | - | - | - |
| 1788362651 | 30° C | 99% | 1008.1 hPa | - | - | - | - |
* Rain since midnight (hover to see other rain measurements)
** Current wind speed in m/s (hover to see current wind gust speed)